sensor_id;sensor_type;location;lat;lon;timestamp;pressure;altitude;pressure_sealevel;temperature;humidity
13068;BME280;6600;51.362;6.686;2023-04-03T00:01:53;102511.88;;;2.70;98.17
13068;BME280;6600;51.362;6.686;2023-04-03T00:04:18;102521.88;;;2.66;98.05
13068;BME280;6600;51.362;6.686;2023-04-03T00:06:44;102514.78;;;2.67;98.25
13068;BME280;6600;51.362;6.686;2023-04-03T00:09:10;102511.66;;;2.62;98.46
13068;BME280;6600;51.362;6.686;2023-04-03T00:11:35;102516.22;;;2.60;98.43
13068;BME280;6600;51.362;6.686;2023-04-03T00:14:00;102512.84;;;2.58;98.49
13068;BME280;6600;51.362;6.686;2023-04-03T00:16:26;102515.75;;;2.54;98.70
13068;BME280;6600;51.362;6.686;2023-04-03T00:18:51;102516.09;;;2.50;99.03
13068;BME280;6600;51.362;6.686;2023-04-03T00:21:16;102510.44;;;2.43;99.26
13068;BME280;6600;51.362;6.686;2023-04-03T00:23:42;102506.47;;;2.38;99.26
13068;BME280;6600;51.362;6.686;2023-04-03T00:26:07;102514.53;;;2.36;99.09
13068;BME280;6600;51.362;6.686;2023-04-03T00:28:32;102511.16;;;2.34;99.46
13068;BME280;6600;51.362;6.686;2023-04-03T00:30:58;102512.81;;;2.35;99.81
13068;BME280;6600;51.362;6.686;2023-04-03T00:33:23;102511.97;;;2.35;99.72
13068;BME280;6600;51.362;6.686;2023-04-03T00:35:49;102514.75;;;2.33;99.64
13068;BME280;6600;51.362;6.686;2023-04-03T00:38:16;102505.25;;;2.31;99.58
13068;BME280;6600;51.362;6.686;2023-04-03T00:40:43;102497.81;;;2.36;99.96
13068;BME280;6600;51.362;6.686;2023-04-03T00:43:15;102502.00;;;2.38;99.95
13068;BME280;6600;51.362;6.686;2023-04-03T00:45:43;102510.31;;;2.34;100.00
13068;BME280;6600;51.362;6.686;2023-04-03T00:48:14;102512.81;;;2.35;100.00
13068;BME280;6600;51.362;6.686;2023-04-03T00:50:42;102516.22;;;2.37;100.00
13068;BME280;6600;51.362;6.686;2023-04-03T00:53:14;102514.03;;;2.42;100.00
13068;BME280;6600;51.362;6.686;2023-04-03T00:55:42;102512.13;;;2.44;100.00
13068;BME280;6600;51.362;6.686;2023-04-03T00:58:08;102512.50;;;2.51;100.00
13068;BME280;6600;51.362;6.686;2023-04-03T01:00:36;102516.81;;;2.63;100.00
13068;BME280;6600;51.362;6.686;2023-04-03T01:03:02;102511.03;;;2.69;100.00
13068;BME280;6600;51.362;6.686;2023-04-03T01:05:28;102515.03;;;2.75;100.00
13068;BME280;6600;51.362;6.686;2023-04-03T01:07:53;102512.72;;;2.70;100.00
13068;BME280;6600;51.362;6.686;2023-04-03T01:10:19;102521.00;;;2.66;100.00
13068;BME280;6600;51.362;6.686;2023-04-03T01:12:48;102521.16;;;2.75;100.00
13068;BME280;6600;51.362;6.686;2023-04-03T01:15:23;102524.66;;;2.76;100.00
13068;BME280;6600;51.362;6.686;2023-04-03T01:17:54;102520.56;;;2.72;100.00
13068;BME280;6600;51.362;6.686;2023-04-03T01:28:04;102530.88;;;2.97;100.00
13068;BME280;6600;51.362;6.686;2023-04-03T01:30:37;102527.28;;;2.98;100.00
13068;BME280;6600;51.362;6.686;2023-04-03T01:33:06;102532.22;;;3.02;100.00
13068;BME280;6600;51.362;6.686;2023-04-03T01:35:31;102532.06;;;3.04;100.00
13068;BME280;6600;51.362;6.686;2023-04-03T01:37:56;102534.00;;;3.02;100.00
13068;BME280;6600;51.362;6.686;2023-04-03T01:40:22;102535.47;;;3.06;100.00
13068;BME280;6600;51.362;6.686;2023-04-03T01:42:47;102540.84;;;3.16;100.00
13068;BME280;6600;51.362;6.686;2023-04-03T01:45:12;102536.84;;;3.21;100.00
13068;BME280;6600;51.362;6.686;2023-04-03T01:47:38;102540.94;;;3.25;100.00
13068;BME280;6600;51.362;6.686;2023-04-03T01:50:03;102544.34;;;3.27;100.00
13068;BME280;6600;51.362;6.686;2023-04-03T01:52:29;102543.59;;;3.36;100.00
13068;BME280;6600;51.362;6.686;2023-04-03T01:54:55;102545.72;;;3.42;99.55
13068;BME280;6600;51.362;6.686;2023-04-03T01:57:20;102545.63;;;3.44;99.23
13068;BME280;6600;51.362;6.686;2023-04-03T01:59:46;102537.03;;;3.51;98.42
13068;BME280;6600;51.362;6.686;2023-04-03T02:02:11;102539.91;;;3.60;98.12
13068;BME280;6600;51.362;6.686;2023-04-03T02:04:37;102545.16;;;3.71;97.09
13068;BME280;6600;51.362;6.686;2023-04-03T02:07:03;102552.44;;;3.89;94.84
13068;BME280;6600;51.362;6.686;2023-04-03T02:09:29;102550.50;;;4.12;93.07
13068;BME280;6600;51.362;6.686;2023-04-03T02:11:54;102543.47;;;4.22;92.30
13068;BME280;6600;51.362;6.686;2023-04-03T02:14:20;102545.72;;;4.27;91.15
13068;BME280;6600;51.362;6.686;2023-04-03T02:16:47;102546.69;;;4.26;90.94
13068;BME280;6600;51.362;6.686;2023-04-03T02:19:12;102551.34;;;4.33;90.40
13068;BME280;6600;51.362;6.686;2023-04-03T02:21:37;102554.97;;;4.32;90.25
13068;BME280;6600;51.362;6.686;2023-04-03T02:24:03;102551.16;;;4.25;89.94
13068;BME280;6600;51.362;6.686;2023-04-03T02:26:28;102553.13;;;4.23;89.01
13068;BME280;6600;51.362;6.686;2023-04-03T02:28:53;102552.59;;;4.29;89.41
13068;BME280;6600;51.362;6.686;2023-04-03T02:31:19;102562.03;;;4.22;89.31
13068;BME280;6600;51.362;6.686;2023-04-03T02:33:45;102563.31;;;4.28;88.26
13068;BME280;6600;51.362;6.686;2023-04-03T02:36:11;102550.19;;;4.26;88.72
13068;BME280;6600;51.362;6.686;2023-04-03T02:38:36;102546.81;;;4.24;88.75
13068;BME280;6600;51.362;6.686;2023-04-03T02:41:08;102547.41;;;4.28;88.52
13068;BME280;6600;51.362;6.686;2023-04-03T02:43:33;102548.50;;;4.25;88.51
13068;BME280;6600;51.362;6.686;2023-04-03T02:45:59;102559.38;;;4.22;87.87
13068;BME280;6600;51.362;6.686;2023-04-03T02:48:25;102558.22;;;4.15;88.22
13068;BME280;6600;51.362;6.686;2023-04-03T02:50:50;102548.56;;;4.14;88.32
13068;BME280;6600;51.362;6.686;2023-04-03T02:53:16;102559.91;;;4.16;88.97
13068;BME280;6600;51.362;6.686;2023-04-03T02:55:41;102563.50;;;4.15;88.37
13068;BME280;6600;51.362;6.686;2023-04-03T02:58:07;102557.63;;;4.12;88.68
13068;BME280;6600;51.362;6.686;2023-04-03T03:00:33;102555.88;;;4.01;89.00
13068;BME280;6600;51.362;6.686;2023-04-03T03:02:59;102562.34;;;4.08;88.61
13068;BME280;6600;51.362;6.686;2023-04-03T03:05:25;102571.25;;;4.07;88.78
13068;BME280;6600;51.362;6.686;2023-04-03T03:07:50;102570.09;;;4.00;88.61
13068;BME280;6600;51.362;6.686;2023-04-03T03:10:15;102563.38;;;3.96;88.90
13068;BME280;6600;51.362;6.686;2023-04-03T03:12:41;102566.47;;;4.01;88.85
13068;BME280;6600;51.362;6.686;2023-04-03T03:15:07;102567.00;;;3.95;88.50
13068;BME280;6600;51.362;6.686;2023-04-03T03:17:33;102564.94;;;3.98;88.37
13068;BME280;6600;51.362;6.686;2023-04-03T03:19:58;102567.25;;;3.92;88.37
13068;BME280;6600;51.362;6.686;2023-04-03T03:22:24;102567.84;;;3.95;88.33
13068;BME280;6600;51.362;6.686;2023-04-03T03:24:49;102570.59;;;3.94;88.54
13068;BME280;6600;51.362;6.686;2023-04-03T03:27:14;102565.81;;;3.88;88.01
13068;BME280;6600;51.362;6.686;2023-04-03T03:29:41;102566.66;;;3.88;88.41
13068;BME280;6600;51.362;6.686;2023-04-03T03:32:06;102573.06;;;3.86;88.79
13068;BME280;6600;51.362;6.686;2023-04-03T03:34:32;102569.94;;;3.81;89.04
13068;BME280;6600;51.362;6.686;2023-04-03T03:36:57;102569.00;;;3.82;88.68
13068;BME280;6600;51.362;6.686;2023-04-03T03:39:22;102565.41;;;3.72;88.90
13068;BME280;6600;51.362;6.686;2023-04-03T03:41:48;102567.28;;;3.81;88.13
13068;BME280;6600;51.362;6.686;2023-04-03T03:44:14;102561.06;;;3.71;89.10
13068;BME280;6600;51.362;6.686;2023-04-03T03:46:40;102562.03;;;3.70;88.56
13068;BME280;6600;51.362;6.686;2023-04-03T03:49:05;102560.09;;;3.72;88.92
13068;BME280;6600;51.362;6.686;2023-04-03T03:51:30;102561.06;;;3.71;88.71
13068;BME280;6600;51.362;6.686;2023-04-03T03:53:56;102555.53;;;3.63;88.67
13068;BME280;6600;51.362;6.686;2023-04-03T03:56:21;102555.78;;;3.60;88.89
13068;BME280;6600;51.362;6.686;2023-04-03T03:58:47;102560.59;;;3.66;88.63
13068;BME280;6600;51.362;6.686;2023-04-03T04:01:12;102558.69;;;3.56;89.53
13068;BME280;6600;51.362;6.686;2023-04-03T04:03:38;102559.66;;;3.55;88.93
13068;BME280;6600;51.362;6.686;2023-04-03T04:06:03;102568.34;;;3.58;89.26
13068;BME280;6600;51.362;6.686;2023-04-03T04:08:28;102566.31;;;3.50;89.16
13068;BME280;6600;51.362;6.686;2023-04-03T04:10:53;102564.53;;;3.39;89.35
13068;BME280;6600;51.362;6.686;2023-04-03T04:13:19;102567.31;;;3.38;89.46
13068;BME280;6600;51.362;6.686;2023-04-03T04:15:44;102569.81;;;3.39;89.43
13068;BME280;6600;51.362;6.686;2023-04-03T04:18:10;102578.97;;;3.35;89.28
13068;BME280;6600;51.362;6.686;2023-04-03T04:20:35;102573.69;;;3.35;89.24
13068;BME280;6600;51.362;6.686;2023-04-03T04:23:00;102582.38;;;3.37;89.09
13068;BME280;6600;51.362;6.686;2023-04-03T04:25:26;102575.50;;;3.35;89.21
13068;BME280;6600;51.362;6.686;2023-04-03T04:27:51;102572.97;;;3.33;88.99
13068;BME280;6600;51.362;6.686;2023-04-03T04:30:17;102573.09;;;3.32;89.29
13068;BME280;6600;51.362;6.686;2023-04-03T04:32:42;102579.72;;;3.26;89.09
13068;BME280;6600;51.362;6.686;2023-04-03T04:35:08;102579.47;;;3.29;89.75
13068;BME280;6600;51.362;6.686;2023-04-03T04:37:33;102585.28;;;3.34;89.69
13068;BME280;6600;51.362;6.686;2023-04-03T04:39:58;102585.72;;;3.28;89.83
13068;BME280;6600;51.362;6.686;2023-04-03T04:42:24;102590.78;;;3.31;89.84
13068;BME280;6600;51.362;6.686;2023-04-03T04:44:49;102597.31;;;3.27;90.42
13068;BME280;6600;51.362;6.686;2023-04-03T04:47:15;102594.78;;;3.26;89.69
13068;BME280;6600;51.362;6.686;2023-04-03T04:49:40;102596.13;;;3.20;89.67
13068;BME280;6600;51.362;6.686;2023-04-03T04:52:06;102592.72;;;3.18;90.16
13068;BME280;6600;51.362;6.686;2023-04-03T04:54:31;102588.41;;;3.17;89.77
13068;BME280;6600;51.362;6.686;2023-04-03T04:56:57;102595.88;;;3.23;89.79
13068;BME280;6600;51.362;6.686;2023-04-03T04:59:23;102605.03;;;3.19;89.78
13068;BME280;6600;51.362;6.686;2023-04-03T05:01:48;102606.22;;;3.15;89.46
13068;BME280;6600;51.362;6.686;2023-04-03T05:04:13;102616.13;;;3.13;89.74
13068;BME280;6600;51.362;6.686;2023-04-03T05:06:39;102600.22;;;3.13;90.05
13068;BME280;6600;51.362;6.686;2023-04-03T05:09:04;102599.72;;;3.19;90.72
13068;BME280;6600;51.362;6.686;2023-04-03T05:11:30;102599.59;;;3.21;90.20
13068;BME280;6600;51.362;6.686;2023-04-03T05:13:55;102607.91;;;3.27;90.35
13068;BME280;6600;51.362;6.686;2023-04-03T05:16:21;102605.97;;;3.18;90.44
13068;BME280;6600;51.362;6.686;2023-04-03T05:18:46;102609.13;;;3.23;90.03
13068;BME280;6600;51.362;6.686;2023-04-03T05:21:11;102615.88;;;3.16;89.99
13068;BME280;6600;51.362;6.686;2023-04-03T05:23:37;102614.16;;;3.15;90.10
13068;BME280;6600;51.362;6.686;2023-04-03T05:26:02;102619.47;;;3.15;90.69
13068;BME280;6600;51.362;6.686;2023-04-03T05:28:28;102610.91;;;3.12;90.99
13068;BME280;6600;51.362;6.686;2023-04-03T05:30:55;102615.88;;;3.16;90.70
13068;BME280;6600;51.362;6.686;2023-04-03T05:33:21;102617.56;;;3.17;90.64
13068;BME280;6600;51.362;6.686;2023-04-03T05:35:47;102619.22;;;3.18;90.75
13068;BME280;6600;51.362;6.686;2023-04-03T05:38:12;102616.97;;;3.14;90.71
13068;BME280;6600;51.362;6.686;2023-04-03T05:40:37;102620.19;;;3.06;91.23
13068;BME280;6600;51.362;6.686;2023-04-03T05:43:03;102631.66;;;3.07;90.53
13068;BME280;6600;51.362;6.686;2023-04-03T05:45:28;102644.25;;;3.14;90.33
13068;BME280;6600;51.362;6.686;2023-04-03T05:47:54;102642.59;;;3.13;90.73
13068;BME280;6600;51.362;6.686;2023-04-03T05:50:20;102647.66;;;3.16;90.98
13068;BME280;6600;51.362;6.686;2023-04-03T05:52:48;102642.59;;;3.13;91.16
13068;BME280;6600;51.362;6.686;2023-04-03T05:55:14;102660.63;;;3.08;90.23
13068;BME280;6600;51.362;6.686;2023-04-03T05:57:39;102661.34;;;3.21;90.70
13068;BME280;6600;51.362;6.686;2023-04-03T06:00:07;102658.72;;;3.21;89.73
13068;BME280;6600;51.362;6.686;2023-04-03T06:02:34;102657.25;;;3.28;89.51
13068;BME280;6600;51.362;6.686;2023-04-03T06:05:01;102667.88;;;3.28;89.78
13068;BME280;6600;51.362;6.686;2023-04-03T06:07:26;102664.75;;;3.23;89.48
13068;BME280;6600;51.362;6.686;2023-04-03T06:09:54;102661.59;;;3.18;89.36
13068;BME280;6600;51.362;6.686;2023-04-03T06:12:21;102667.63;;;3.20;89.74
13068;BME280;6600;51.362;6.686;2023-04-03T06:14:46;102668.34;;;3.22;89.38
13068;BME280;6600;51.362;6.686;2023-04-03T06:17:13;102660.75;;;3.29;88.95
13068;BME280;6600;51.362;6.686;2023-04-03T06:19:38;102662.09;;;3.34;89.53
13068;BME280;6600;51.362;6.686;2023-04-03T06:22:03;102665.72;;;3.33;88.99
13068;BME280;6600;51.362;6.686;2023-04-03T06:24:29;102669.44;;;3.31;88.95
13068;BME280;6600;51.362;6.686;2023-04-03T06:26:55;102677.00;;;3.35;88.91
13068;BME280;6600;51.362;6.686;2023-04-03T06:29:21;102657.75;;;3.44;89.20
13068;BME280;6600;51.362;6.686;2023-04-03T06:31:47;102659.41;;;3.45;88.83
13068;BME280;6600;51.362;6.686;2023-04-03T06:34:13;102664.00;;;3.54;89.11
13068;BME280;6600;51.362;6.686;2023-04-03T06:36:39;102656.75;;;3.68;88.04
13068;BME280;6600;51.362;6.686;2023-04-03T06:39:05;102654.44;;;3.85;88.35
13068;BME280;6600;51.362;6.686;2023-04-03T06:41:32;102660.28;;;4.00;87.77
13068;BME280;6600;51.362;6.686;2023-04-03T06:43:58;102662.91;;;4.11;87.01
13068;BME280;6600;51.362;6.686;2023-04-03T06:46:25;102667.94;;;4.14;86.05
13068;BME280;6600;51.362;6.686;2023-04-03T06:48:52;102665.88;;;4.18;86.47
13068;BME280;6600;51.362;6.686;2023-04-03T06:51:26;102673.44;;;4.33;85.92
13068;BME280;6600;51.362;6.686;2023-04-03T06:53:54;102679.44;;;4.35;84.96
13068;BME280;6600;51.362;6.686;2023-04-03T06:56:19;102677.59;;;4.47;84.39
13068;BME280;6600;51.362;6.686;2023-04-03T06:58:45;102689.06;;;4.47;84.20
13068;BME280;6600;51.362;6.686;2023-04-03T07:01:13;102690.41;;;4.63;84.23
13068;BME280;6600;51.362;6.686;2023-04-03T07:03:39;102692.63;;;4.57;84.16
13068;BME280;6600;51.362;6.686;2023-04-03T07:06:06;102684.09;;;4.75;84.68
13068;BME280;6600;51.362;6.686;2023-04-03T07:08:32;102693.53;;;4.68;82.53
13068;BME280;6600;51.362;6.686;2023-04-03T07:10:58;102687.91;;;4.61;82.56
13068;BME280;6600;51.362;6.686;2023-04-03T07:13:23;102692.50;;;4.80;83.00
13068;BME280;6600;51.362;6.686;2023-04-03T07:15:49;102686.31;;;4.79;82.47
13068;BME280;6600;51.362;6.686;2023-04-03T07:18:15;102701.25;;;4.91;82.45
13068;BME280;6600;51.362;6.686;2023-04-03T07:20:42;102700.34;;;4.81;81.24
13068;BME280;6600;51.362;6.686;2023-04-03T07:23:07;102697.63;;;4.92;81.87
13068;BME280;6600;51.362;6.686;2023-04-03T07:25:32;102700.75;;;5.07;81.29
13068;BME280;6600;51.362;6.686;2023-04-03T07:27:58;102701.69;;;5.17;81.22
13068;BME280;6600;51.362;6.686;2023-04-03T07:30:24;102693.25;;;5.12;81.13
13068;BME280;6600;51.362;6.686;2023-04-03T07:32:50;102704.72;;;5.13;81.97
13068;BME280;6600;51.362;6.686;2023-04-03T07:35:16;102715.94;;;5.16;80.69
13068;BME280;6600;51.362;6.686;2023-04-03T07:37:42;102713.72;;;5.21;80.96
13068;BME280;6600;51.362;6.686;2023-04-03T07:40:08;102711.50;;;5.26;80.74
13068;BME280;6600;51.362;6.686;2023-04-03T07:42:34;102719.09;;;5.31;80.66
13068;BME280;6600;51.362;6.686;2023-04-03T07:45:00;102715.75;;;5.38;81.42
13068;BME280;6600;51.362;6.686;2023-04-03T07:47:27;102717.19;;;5.42;81.76
13068;BME280;6600;51.362;6.686;2023-04-03T07:49:52;102718.88;;;5.43;78.70
13068;BME280;6600;51.362;6.686;2023-04-03T07:52:17;102714.97;;;5.47;78.37
13068;BME280;6600;51.362;6.686;2023-04-03T07:54:42;102711.88;;;5.52;78.34
13068;BME280;6600;51.362;6.686;2023-04-03T07:57:08;102714.69;;;5.50;76.38
13068;BME280;6600;51.362;6.686;2023-04-03T07:59:33;102717.41;;;5.60;76.26
13068;BME280;6600;51.362;6.686;2023-04-03T08:01:59;102715.88;;;5.67;76.25
13068;BME280;6600;51.362;6.686;2023-04-03T08:04:24;102723.97;;;5.66;75.44
13068;BME280;6600;51.362;6.686;2023-04-03T08:06:51;102718.94;;;5.63;73.84
13068;BME280;6600;51.362;6.686;2023-04-03T08:09:17;102725.44;;;5.79;73.80
13068;BME280;6600;51.362;6.686;2023-04-03T08:11:43;102731.97;;;5.96;74.76
13068;BME280;6600;51.362;6.686;2023-04-03T08:14:08;102724.69;;;6.07;74.98
13068;BME280;6600;51.362;6.686;2023-04-03T08:16:36;102724.13;;;6.04;72.91
13068;BME280;6600;51.362;6.686;2023-04-03T08:19:01;102726.94;;;6.12;72.15
13068;BME280;6600;51.362;6.686;2023-04-03T08:21:26;102728.03;;;6.00;74.78
13068;BME280;6600;51.362;6.686;2023-04-03T08:23:52;102722.47;;;6.03;73.09
13068;BME280;6600;51.362;6.686;2023-04-03T08:26:20;102724.47;;;6.20;71.00
13068;BME280;6600;51.362;6.686;2023-04-03T08:28:46;102717.88;;;6.34;73.04
13068;BME280;6600;51.362;6.686;2023-04-03T08:31:15;102723.34;;;6.32;73.58
13068;BME280;6600;51.362;6.686;2023-04-03T08:33:41;102720.81;;;6.40;71.36
13068;BME280;6600;51.362;6.686;2023-04-03T08:36:14;102718.56;;;6.26;71.69
13068;BME280;6600;51.362;6.686;2023-04-03T08:38:41;102723.34;;;6.51;71.48
13068;BME280;6600;51.362;6.686;2023-04-03T08:43:36;102714.66;;;6.49;71.07
13068;BME280;6600;51.362;6.686;2023-04-03T08:46:05;102726.69;;;6.73;68.84
13068;BME280;6600;51.362;6.686;2023-04-03T08:48:36;102726.13;;;6.69;66.81
13068;BME280;6600;51.362;6.686;2023-04-03T08:51:18;102727.25;;;6.86;66.30
13068;BME280;6600;51.362;6.686;2023-04-03T08:53:59;102727.38;;;6.94;64.22
13068;BME280;6600;51.362;6.686;2023-04-03T08:56:27;102724.41;;;7.16;64.39
13068;BME280;6600;51.362;6.686;2023-04-03T08:58:57;102720.47;;;7.20;63.56
13068;BME280;6600;51.362;6.686;2023-04-03T09:01:27;102721.00;;;7.14;63.29
13068;BME280;6600;51.362;6.686;2023-04-03T09:03:54;102730.00;;;7.13;62.64
13068;BME280;6600;51.362;6.686;2023-04-03T09:06:23;102723.69;;;7.24;60.21
13068;BME280;6600;51.362;6.686;2023-04-03T09:09:21;102734.13;;;7.44;61.26
13068;BME280;6600;51.362;6.686;2023-04-03T09:20:13;102734.31;;;7.33;59.53
13068;BME280;6600;51.362;6.686;2023-04-03T09:22:43;102728.16;;;7.60;58.79
13068;BME280;6600;51.362;6.686;2023-04-03T09:25:27;102737.16;;;7.59;58.75
13068;BME280;6600;51.362;6.686;2023-04-03T09:27:53;102738.50;;;7.73;60.84
13068;BME280;6600;51.362;6.686;2023-04-03T09:30:21;102740.47;;;7.71;57.72
13068;BME280;6600;51.362;6.686;2023-04-03T09:32:49;102736.34;;;7.86;54.32
13068;BME280;6600;51.362;6.686;2023-04-03T09:37:45;102724.31;;;8.44;57.82
13068;BME280;6600;51.362;6.686;2023-04-03T09:42:57;102724.56;;;8.51;53.19
13068;BME280;6600;51.362;6.686;2023-04-03T09:45:26;102723.31;;;8.63;53.07
13068;BME280;6600;51.362;6.686;2023-04-03T09:51:00;102718.41;;;8.58;52.82
13068;BME280;6600;51.362;6.686;2023-04-03T09:53:42;102722.53;;;8.71;54.50
13068;BME280;6600;51.362;6.686;2023-04-03T09:58:45;102738.03;;;8.85;48.92
13068;BME280;6600;51.362;6.686;2023-04-03T10:01:27;102731.94;;;8.75;47.79
13068;BME280;6600;51.362;6.686;2023-04-03T10:04:13;102718.03;;;8.89;50.07
13068;BME280;6600;51.362;6.686;2023-04-03T10:06:52;102728.78;;;8.79;47.29
13068;BME280;6600;51.362;6.686;2023-04-03T10:09:31;102725.13;;;8.80;46.76
13068;BME280;6600;51.362;6.686;2023-04-03T10:12:05;102719.78;;;8.62;45.53
13068;BME280;6600;51.362;6.686;2023-04-03T10:14:36;102729.50;;;8.63;46.99
13068;BME280;6600;51.362;6.686;2023-04-03T10:17:06;102716.44;;;8.43;47.53
13068;BME280;6600;51.362;6.686;2023-04-03T10:25:00;102714.03;;;8.93;47.92
13068;BME280;6600;51.362;6.686;2023-04-03T10:27:49;102715.00;;;9.09;47.98
13068;BME280;6600;51.362;6.686;2023-04-03T10:39:45;102700.53;;;9.20;47.49
13068;BME280;6600;51.362;6.686;2023-04-03T10:42:39;102702.28;;;8.86;46.65
13068;BME280;6600;51.362;6.686;2023-04-03T10:48:04;102695.25;;;9.10;48.84
13068;BME280;6600;51.362;6.686;2023-04-03T10:51:21;102690.88;;;9.27;50.90
13068;BME280;6600;51.362;6.686;2023-04-03T10:58:45;102681.81;;;9.28;48.80
13068;BME280;6600;51.362;6.686;2023-04-03T11:01:21;102675.97;;;9.67;50.58
13068;BME280;6600;51.362;6.686;2023-04-03T11:03:54;102669.53;;;9.43;48.84
13068;BME280;6600;51.362;6.686;2023-04-03T11:06:24;102666.84;;;9.43;47.61
13068;BME280;6600;51.362;6.686;2023-04-03T11:08:59;102659.16;;;9.40;49.15
13068;BME280;6600;51.362;6.686;2023-04-03T11:11:30;102660.44;;;9.70;50.17
13068;BME280;6600;51.362;6.686;2023-04-03T11:16:33;102663.44;;;9.67;49.89
13068;BME280;6600;51.362;6.686;2023-04-03T11:19:38;102661.59;;;9.76;48.19
13068;BME280;6600;51.362;6.686;2023-04-03T11:22:13;102652.31;;;10.04;48.56
13068;BME280;6600;51.362;6.686;2023-04-03T11:24:42;102656.56;;;9.73;47.60
13068;BME280;6600;51.362;6.686;2023-04-03T11:27:16;102648.28;;;9.92;48.48
13068;BME280;6600;51.362;6.686;2023-04-03T11:29:47;102662.34;;;9.94;48.65
13068;BME280;6600;51.362;6.686;2023-04-03T11:34:44;102661.16;;;9.96;48.68
13068;BME280;6600;51.362;6.686;2023-04-03T11:37:31;102657.28;;;9.75;49.14
13068;BME280;6600;51.362;6.686;2023-04-03T11:40:06;102652.06;;;9.65;48.96
13068;BME280;6600;51.362;6.686;2023-04-03T11:42:38;102654.59;;;9.83;50.96
13068;BME280;6600;51.362;6.686;2023-04-03T11:47:49;102635.91;;;9.99;50.29
13068;BME280;6600;51.362;6.686;2023-04-03T12:05:57;102628.53;;;9.93;50.88
13068;BME280;6600;51.362;6.686;2023-04-03T12:14:02;102615.22;;;9.51;50.54
13068;BME280;6600;51.362;6.686;2023-04-03T12:16:42;102629.47;;;9.68;50.47
13068;BME280;6600;51.362;6.686;2023-04-03T12:32:34;102605.44;;;9.92;51.35
13068;BME280;6600;51.362;6.686;2023-04-03T12:35:14;102594.94;;;10.31;47.44
13068;BME280;6600;51.362;6.686;2023-04-03T12:43:33;102596.78;;;10.22;48.71
13068;BME280;6600;51.362;6.686;2023-04-03T12:46:07;102597.47;;;10.16;48.37
13068;BME280;6600;51.362;6.686;2023-04-03T12:48:51;102585.03;;;10.31;48.64
13068;BME280;6600;51.362;6.686;2023-04-03T12:51:39;102576.34;;;10.21;47.79
13068;BME280;6600;51.362;6.686;2023-04-03T12:54:31;102580.69;;;10.06;48.29
13068;BME280;6600;51.362;6.686;2023-04-03T12:57:17;102566.47;;;10.13;49.50
13068;BME280;6600;51.362;6.686;2023-04-03T12:59:44;102582.34;;;9.91;49.21
13068;BME280;6600;51.362;6.686;2023-04-03T13:02:24;102577.66;;;10.01;47.02
13068;BME280;6600;51.362;6.686;2023-04-03T13:04:55;102558.94;;;10.25;48.00
13068;BME280;6600;51.362;6.686;2023-04-03T13:07:29;102556.59;;;10.30;48.16
13068;BME280;6600;51.362;6.686;2023-04-03T13:10:14;102559.91;;;10.00;50.35
13068;BME280;6600;51.362;6.686;2023-04-03T13:12:50;102557.91;;;9.86;50.97
13068;BME280;6600;51.362;6.686;2023-04-03T13:15:28;102563.25;;;9.86;50.02
13068;BME280;6600;51.362;6.686;2023-04-03T13:17:55;102559.09;;;9.99;50.29
13068;BME280;6600;51.362;6.686;2023-04-03T13:20:30;102569.97;;;10.06;49.64
13068;BME280;6600;51.362;6.686;2023-04-03T13:23:05;102561.47;;;10.27;49.18
13068;BME280;6600;51.362;6.686;2023-04-03T13:25:35;102574.34;;;10.15;47.55
13068;BME280;6600;51.362;6.686;2023-04-03T13:28:03;102548.91;;;10.19;47.91
13068;BME280;6600;51.362;6.686;2023-04-03T13:30:33;102559.63;;;10.19;47.22
13068;BME280;6600;51.362;6.686;2023-04-03T13:33:02;102558.25;;;10.31;48.63
13068;BME280;6600;51.362;6.686;2023-04-03T13:35:34;102548.88;;;10.43;47.86
13068;BME280;6600;51.362;6.686;2023-04-03T13:38:05;102535.97;;;10.47;49.33
13068;BME280;6600;51.362;6.686;2023-04-03T13:40:32;102543.31;;;10.61;48.30
13068;BME280;6600;51.362;6.686;2023-04-03T13:43:27;102546.16;;;10.59;48.64
13068;BME280;6600;51.362;6.686;2023-04-03T13:46:03;102548.16;;;10.65;49.63
13068;BME280;6600;51.362;6.686;2023-04-03T13:48:44;102539.09;;;10.58;48.15
13068;BME280;6600;51.362;6.686;2023-04-03T13:53:44;102559.41;;;10.61;48.63
13068;BME280;6600;51.362;6.686;2023-04-03T13:58:57;102544.03;;;10.23;47.79
13068;BME280;6600;51.362;6.686;2023-04-03T14:01:24;102539.84;;;10.44;47.42
13068;BME280;6600;51.362;6.686;2023-04-03T14:03:58;102543.50;;;10.51;47.82
13068;BME280;6600;51.362;6.686;2023-04-03T14:06:24;102531.56;;;10.62;47.54
13068;BME280;6600;51.362;6.686;2023-04-03T14:08:50;102530.41;;;10.56;47.15
13068;BME280;6600;51.362;6.686;2023-04-03T14:11:22;102502.25;;;10.69;47.93
13068;BME280;6600;51.362;6.686;2023-04-03T14:13:49;102532.09;;;10.49;46.42
13068;BME280;6600;51.362;6.686;2023-04-03T14:16:18;102518.84;;;10.72;47.24
13068;BME280;6600;51.362;6.686;2023-04-03T14:18:45;102516.31;;;10.71;46.16
13068;BME280;6600;51.362;6.686;2023-04-03T14:21:12;102516.25;;;10.87;46.18
13068;BME280;6600;51.362;6.686;2023-04-03T14:23:39;102514.72;;;10.92;46.02
13068;BME280;6600;51.362;6.686;2023-04-03T14:26:09;102511.09;;;10.69;47.00
13068;BME280;6600;51.362;6.686;2023-04-03T14:28:36;102514.97;;;10.67;47.76
13068;BME280;6600;51.362;6.686;2023-04-03T14:31:02;102508.28;;;10.62;47.72
13068;BME280;6600;51.362;6.686;2023-04-03T14:33:27;102506.91;;;10.75;48.11
13068;BME280;6600;51.362;6.686;2023-04-03T14:35:56;102481.69;;;10.53;47.64
13068;BME280;6600;51.362;6.686;2023-04-03T14:38:27;102493.38;;;10.60;48.30
13068;BME280;6600;51.362;6.686;2023-04-03T14:40:53;102506.13;;;10.58;47.62
13068;BME280;6600;51.362;6.686;2023-04-03T14:43:19;102491.22;;;10.55;48.43
13068;BME280;6600;51.362;6.686;2023-04-03T14:45:46;102487.09;;;10.37;48.27
13068;BME280;6600;51.362;6.686;2023-04-03T14:48:23;102487.28;;;10.27;50.13
13068;BME280;6600;51.362;6.686;2023-04-03T14:50:50;102492.28;;;10.30;49.06
13068;BME280;6600;51.362;6.686;2023-04-03T14:53:16;102484.75;;;10.34;49.00
13068;BME280;6600;51.362;6.686;2023-04-03T14:55:47;102479.69;;;10.47;48.98
13068;BME280;6600;51.362;6.686;2023-04-03T14:58:17;102493.13;;;10.31;47.32
13068;BME280;6600;51.362;6.686;2023-04-03T15:00:44;102482.25;;;10.24;48.15